createdAt,value
2023-04-27T00:01:28.885Z,10.59
2023-04-27T00:03:56.371Z,10.53
2023-04-27T00:06:24.047Z,10.48
2023-04-27T00:08:51.347Z,10.51
2023-04-27T00:11:18.781Z,10.60
2023-04-27T00:13:46.100Z,10.58
2023-04-27T00:16:16.679Z,10.43
2023-04-27T00:18:43.924Z,10.27
2023-04-27T00:21:11.295Z,10.18
2023-04-27T00:23:38.629Z,10.13
2023-04-27T00:26:05.888Z,10.20
2023-04-27T00:28:34.865Z,10.21
2023-04-27T00:31:02.259Z,10.15
2023-04-27T00:33:30.408Z,10.21
2023-04-27T00:36:01.249Z,10.11
2023-04-27T00:38:29.719Z,10.07
2023-04-27T00:41:04.957Z,10.15
2023-04-27T00:43:32.868Z,10.21
2023-04-27T00:46:00.677Z,9.86
2023-04-27T00:48:28.469Z,9.95
2023-04-27T00:50:55.967Z,9.90
2023-04-27T00:53:23.247Z,9.97
2023-04-27T00:55:50.815Z,9.94
2023-04-27T00:58:19.069Z,9.67
2023-04-27T01:00:46.474Z,9.78
2023-04-27T01:03:14.010Z,9.85
2023-04-27T01:05:42.043Z,9.71
2023-04-27T01:08:09.762Z,9.73
2023-04-27T01:10:37.592Z,9.81
2023-04-27T01:13:05.005Z,9.74
2023-04-27T01:15:32.898Z,9.83
2023-04-27T01:18:01.693Z,9.48
2023-04-27T01:20:33.167Z,9.62
2023-04-27T01:23:00.509Z,9.24
2023-04-27T01:25:27.960Z,9.56
2023-04-27T01:27:55.272Z,9.62
2023-04-27T01:30:22.758Z,9.62
2023-04-27T01:32:50.301Z,9.61
2023-04-27T01:35:18.055Z,9.64
2023-04-27T01:37:45.445Z,9.50
2023-04-27T01:40:13.248Z,9.42
2023-04-27T01:42:40.596Z,9.60
2023-04-27T01:45:08.636Z,9.49
2023-04-27T01:47:36.623Z,9.60
2023-04-27T01:50:06.970Z,9.55
2023-04-27T01:52:34.308Z,9.61
2023-04-27T01:55:01.721Z,9.49
2023-04-27T01:57:29.018Z,9.59
2023-04-27T01:59:56.798Z,9.66
2023-04-27T02:02:24.196Z,9.66
2023-04-27T02:04:52.201Z,9.56
2023-04-27T02:07:19.587Z,9.47
2023-04-27T02:09:46.988Z,9.42
2023-04-27T02:12:14.349Z,9.33
2023-04-27T02:14:41.676Z,9.24
2023-04-27T02:17:09.174Z,9.13
2023-04-27T02:19:36.557Z,9.21
2023-04-27T02:22:03.902Z,9.28
2023-04-27T02:24:31.330Z,9.14
2023-04-27T02:26:58.710Z,9.12
2023-04-27T02:29:30.520Z,9.30
2023-04-27T02:31:58.877Z,9.30
2023-04-27T02:34:26.289Z,9.19
2023-04-27T02:36:54.094Z,9.27
2023-04-27T02:39:21.368Z,9.41
2023-04-27T02:41:48.779Z,9.46
2023-04-27T02:44:16.103Z,9.58
2023-04-27T02:46:43.484Z,9.41
2023-04-27T02:49:10.961Z,9.32
2023-04-27T02:51:38.312Z,9.40
2023-04-27T02:54:05.758Z,9.56
2023-04-27T02:56:33.198Z,9.36
2023-04-27T02:59:00.542Z,9.07
2023-04-27T03:01:30.415Z,9.12
2023-04-27T03:03:57.885Z,9.11
2023-04-27T03:06:26.071Z,9.46
2023-04-27T03:08:53.659Z,9.21
2023-04-27T03:11:20.899Z,9.18
2023-04-27T03:13:50.627Z,9.13
2023-04-27T03:16:17.965Z,9.32
2023-04-27T03:18:45.557Z,9.18
2023-04-27T03:21:14.513Z,9.30
2023-04-27T03:23:41.754Z,9.23
2023-04-27T03:26:10.511Z,9.23
2023-04-27T03:28:38.606Z,10.37
2023-04-27T03:31:14.652Z,12.20
2023-04-27T03:33:42.126Z,12.14
2023-04-27T03:36:09.731Z,12.82
2023-04-27T03:38:37.712Z,13.61
2023-04-27T03:41:05.573Z,13.38
2023-04-27T03:43:33.360Z,12.87
2023-04-27T03:46:01.602Z,11.35
2023-04-27T03:48:29.815Z,10.72
2023-04-27T03:50:57.608Z,10.54
2023-04-27T03:53:28.078Z,10.67
2023-04-27T03:55:56.380Z,11.29
2023-04-27T03:58:24.446Z,12.70
2023-04-27T04:00:52.177Z,12.38
2023-04-27T04:03:20.205Z,12.57
2023-04-27T04:05:47.885Z,14.53
2023-04-27T04:08:15.190Z,12.13
2023-04-27T04:10:42.552Z,11.20
2023-04-27T04:13:09.994Z,10.79
2023-04-27T04:15:39.894Z,10.64
2023-04-27T04:18:07.475Z,10.49
2023-04-27T04:20:35.220Z,10.65
2023-04-27T04:23:02.297Z,10.58
2023-04-27T04:25:29.504Z,10.59
2023-04-27T04:27:56.618Z,10.41
2023-04-27T04:30:23.880Z,10.42
2023-04-27T04:32:51.250Z,10.32
2023-04-27T04:35:18.588Z,10.05
2023-04-27T04:37:45.695Z,10.05
2023-04-27T04:40:14.008Z,10.40
2023-04-27T04:42:41.290Z,10.11
2023-04-27T04:45:08.940Z,10.27
2023-04-27T04:47:36.078Z,10.41
2023-04-27T04:50:03.414Z,10.58
2023-04-27T04:52:30.673Z,10.58
2023-04-27T04:54:57.894Z,10.35
2023-04-27T04:57:25.145Z,10.11
2023-04-27T04:59:52.259Z,10.13
2023-04-27T05:02:19.495Z,10.16
2023-04-27T05:04:48.988Z,10.38
2023-04-27T05:07:24.122Z,10.42
2023-04-27T05:09:56.400Z,10.69
2023-04-27T05:12:23.589Z,10.42
2023-04-27T05:14:51.920Z,10.27
2023-04-27T05:17:19.155Z,10.49
2023-04-27T05:19:46.688Z,10.30
2023-04-27T05:22:15.082Z,10.50
2023-04-27T05:24:42.198Z,10.39
2023-04-27T05:27:10.277Z,10.45
2023-04-27T05:29:37.457Z,10.56
2023-04-27T05:32:05.253Z,10.65
2023-04-27T05:34:32.406Z,10.19
2023-04-27T05:36:59.653Z,10.26
2023-04-27T05:39:26.798Z,10.20
2023-04-27T05:41:53.998Z,10.48
2023-04-27T05:44:21.096Z,10.72
2023-04-27T05:46:51.182Z,10.72
2023-04-27T05:49:18.653Z,10.67
2023-04-27T05:51:45.843Z,10.69
2023-04-27T05:54:12.959Z,10.71
2023-04-27T05:56:40.084Z,10.55
2023-04-27T05:59:07.214Z,10.67
2023-04-27T06:01:34.422Z,10.68
2023-04-27T06:04:02.061Z,10.83
2023-04-27T06:06:31.914Z,10.93
2023-04-27T06:08:59.077Z,10.64
2023-04-27T06:11:26.232Z,10.68
2023-04-27T06:13:53.320Z,10.65
2023-04-27T06:16:20.550Z,10.72
2023-04-27T06:18:49.772Z,10.62
2023-04-27T06:21:17.071Z,10.91
2023-04-27T06:23:44.481Z,10.98
2023-04-27T06:26:11.849Z,10.87
2023-04-27T06:28:39.055Z,11.00
2023-04-27T06:31:06.499Z,11.00
2023-04-27T06:33:34.029Z,10.82
2023-04-27T06:36:01.509Z,11.06
2023-04-27T06:38:28.715Z,11.23
2023-04-27T06:40:56.119Z,11.31
2023-04-27T06:43:23.426Z,11.48
2023-04-27T06:45:50.927Z,11.26
2023-04-27T06:48:18.383Z,11.24
2023-04-27T06:50:47.674Z,11.39
2023-04-27T06:53:15.070Z,14.14
2023-04-27T06:55:44.392Z,11.91
2023-04-27T06:58:13.948Z,12.12
2023-04-27T07:00:41.412Z,11.88
2023-04-27T07:03:08.981Z,11.64
2023-04-27T07:05:36.455Z,12.00
2023-04-27T07:08:07.169Z,11.79
2023-04-27T07:10:35.776Z,11.75
2023-04-27T07:13:08.853Z,11.87
2023-04-27T07:15:36.914Z,11.72
2023-04-27T07:18:05.128Z,11.86
2023-04-27T07:20:32.614Z,12.15
2023-04-27T07:22:59.971Z,12.07
2023-04-27T07:25:27.504Z,12.16
2023-04-27T07:27:54.801Z,11.81
2023-04-27T07:30:22.304Z,11.86
2023-04-27T07:32:52.843Z,11.99
2023-04-27T07:35:20.517Z,11.86
2023-04-27T07:37:49.128Z,12.05
2023-04-27T07:40:16.928Z,12.29
2023-04-27T07:42:44.950Z,12.46
2023-04-27T07:45:12.334Z,12.51
2023-04-27T07:47:39.806Z,12.55
2023-04-27T07:50:07.909Z,12.59
2023-04-27T07:52:35.112Z,12.98
2023-04-27T07:55:02.524Z,13.05
2023-04-27T07:57:30.303Z,13.07
2023-04-27T07:59:57.964Z,13.03
2023-04-27T08:02:27.747Z,13.78
2023-04-27T08:04:56.631Z,13.42
2023-04-27T08:07:25.017Z,13.89
2023-04-27T08:10:09.035Z,14.02
2023-04-27T08:12:36.875Z,14.37
2023-04-27T08:15:05.891Z,15.00
2023-04-27T08:17:33.717Z,15.26
2023-04-27T08:20:01.121Z,15.39
2023-04-27T08:22:30.767Z,15.50
2023-04-27T08:24:58.054Z,15.34
2023-04-27T08:27:25.486Z,15.58
2023-04-27T08:29:52.900Z,15.49
2023-04-27T08:32:20.211Z,15.43
2023-04-27T08:34:48.789Z,15.33
2023-04-27T08:37:16.435Z,15.25
2023-04-27T08:39:43.873Z,14.76
2023-04-27T08:42:12.074Z,14.39
2023-04-27T08:44:44.263Z,14.24
2023-04-27T08:47:11.828Z,14.18
2023-04-27T08:49:39.207Z,14.27
2023-04-27T08:52:16.912Z,14.52
2023-04-27T08:54:44.515Z,14.78
2023-04-27T08:57:13.647Z,14.65
2023-04-27T08:59:42.894Z,14.40
2023-04-27T09:02:21.075Z,14.59
2023-04-27T09:04:49.173Z,14.62
2023-04-27T09:07:18.498Z,14.83
2023-04-27T09:09:46.035Z,14.88
2023-04-27T09:12:19.104Z,14.91
2023-04-27T09:15:00.648Z,15.35
2023-04-27T09:17:29.224Z,16.22
2023-04-27T09:20:09.601Z,16.64
2023-04-27T09:22:48.708Z,16.21
2023-04-27T09:25:25.705Z,15.50
2023-04-27T09:27:53.588Z,15.28
2023-04-27T09:30:21.706Z,15.69
2023-04-27T09:32:54.159Z,16.37
2023-04-27T09:35:29.757Z,17.76
2023-04-27T09:37:57.844Z,17.68
2023-04-27T09:40:32.639Z,17.54
2023-04-27T09:43:01.323Z,17.28
2023-04-27T09:45:29.388Z,16.56
2023-04-27T09:47:58.560Z,16.18
2023-04-27T09:50:25.886Z,16.57
2023-04-27T09:52:53.206Z,16.62
2023-04-27T09:55:37.785Z,16.71
2023-04-27T09:58:29.211Z,16.86
2023-04-27T10:00:56.454Z,16.77
2023-04-27T10:03:33.671Z,16.63
2023-04-27T10:06:07.373Z,17.62
2023-04-27T10:08:38.837Z,17.20
2023-04-27T10:11:18.536Z,17.85
2023-04-27T10:13:54.401Z,17.90
2023-04-27T10:16:24.819Z,17.85
2023-04-27T10:18:56.060Z,18.07
2023-04-27T10:21:23.386Z,17.77
2023-04-27T10:23:51.949Z,18.18
2023-04-27T10:26:27.764Z,18.03
2023-04-27T10:29:09.229Z,18.24
2023-04-27T10:31:43.742Z,18.23
2023-04-27T10:34:15.633Z,18.18
2023-04-27T10:36:43.011Z,17.56
2023-04-27T10:39:25.424Z,17.83
2023-04-27T10:41:57.295Z,17.13
2023-04-27T10:44:29.445Z,17.32
2023-04-27T10:46:59.128Z,17.48
2023-04-27T10:49:30.243Z,17.54
2023-04-27T10:51:59.061Z,17.20
2023-04-27T10:54:29.479Z,17.43
2023-04-27T10:57:04.695Z,17.70
2023-04-27T10:59:34.161Z,17.47
2023-04-27T11:02:01.716Z,17.38
2023-04-27T11:04:39.630Z,17.50
2023-04-27T11:07:10.559Z,17.80
2023-04-27T11:09:39.676Z,17.84
2023-04-27T11:12:08.452Z,18.70
2023-04-27T11:14:35.791Z,19.27
2023-04-27T11:17:04.425Z,19.33
2023-04-27T11:19:31.694Z,19.33
2023-04-27T11:22:06.227Z,18.73
2023-04-27T11:24:33.753Z,18.35
2023-04-27T11:27:01.082Z,17.67
2023-04-27T11:29:38.028Z,17.86
2023-04-27T11:32:05.800Z,17.95
2023-04-27T11:34:33.604Z,17.41
2023-04-27T11:37:17.359Z,17.38
2023-04-27T11:39:46.641Z,17.16
2023-04-27T11:42:25.635Z,16.86
2023-04-27T11:45:04.152Z,16.50
2023-04-27T11:47:32.860Z,16.47
2023-04-27T11:50:02.407Z,16.43
2023-04-27T11:52:30.348Z,16.25
2023-04-27T11:54:59.282Z,16.14
2023-04-27T11:57:28.447Z,16.12
2023-04-27T11:59:58.126Z,16.03
2023-04-27T12:02:27.106Z,16.18
2023-04-27T12:04:54.964Z,16.10
2023-04-27T12:07:22.557Z,16.15
2023-04-27T12:09:50.068Z,16.37
2023-04-27T12:12:17.567Z,16.16
2023-04-27T12:14:45.579Z,16.25
2023-04-27T12:17:13.064Z,16.39
2023-04-27T12:19:40.797Z,16.15
2023-04-27T12:22:08.239Z,16.11
2023-04-27T12:24:35.852Z,15.92
2023-04-27T12:27:03.816Z,16.09
2023-04-27T12:29:31.884Z,15.91
2023-04-27T12:32:00.233Z,16.26
2023-04-27T12:34:27.607Z,16.23
2023-04-27T12:36:55.149Z,16.35
2023-04-27T12:39:23.637Z,16.86
2023-04-27T12:41:51.181Z,16.80
2023-04-27T12:44:19.846Z,16.66
2023-04-27T12:46:47.630Z,16.56
2023-04-27T12:49:15.074Z,16.67
2023-04-27T12:51:42.799Z,16.53
2023-04-27T12:54:10.774Z,16.54
2023-04-27T12:56:38.204Z,16.42
2023-04-27T12:59:05.709Z,16.61
2023-04-27T13:01:35.875Z,17.06
2023-04-27T13:04:04.885Z,17.31
2023-04-27T13:06:32.331Z,16.79
2023-04-27T13:08:59.870Z,16.39
2023-04-27T13:11:27.332Z,16.96
2023-04-27T13:13:54.662Z,17.02
2023-04-27T13:16:22.147Z,17.46
2023-04-27T13:18:49.476Z,17.65
2023-04-27T13:21:17.299Z,17.42
2023-04-27T13:23:44.756Z,17.18
2023-04-27T13:26:12.042Z,17.28
2023-04-27T13:28:40.844Z,17.13
2023-04-27T13:31:08.475Z,17.16
2023-04-27T13:33:40.084Z,17.56
2023-04-27T13:36:08.482Z,17.79
2023-04-27T13:38:35.892Z,17.96
2023-04-27T13:41:04.076Z,18.30
2023-04-27T13:43:32.353Z,17.94
2023-04-27T13:46:01.091Z,17.90
2023-04-27T13:48:30.165Z,17.97
2023-04-27T13:50:58.018Z,18.56
2023-04-27T13:53:25.477Z,18.63
2023-04-27T13:55:54.394Z,18.83
2023-04-27T13:58:24.380Z,19.07
2023-04-27T14:00:53.940Z,19.13
2023-04-27T14:03:21.798Z,18.96
2023-04-27T14:05:49.437Z,19.04
2023-04-27T14:08:17.186Z,18.69
2023-04-27T14:10:45.414Z,18.80
2023-04-27T14:13:13.310Z,18.54
2023-04-27T14:15:41.903Z,18.39
2023-04-27T14:18:09.995Z,18.41
2023-04-27T14:20:39.000Z,18.32
2023-04-27T14:23:06.706Z,18.27
2023-04-27T14:25:34.100Z,18.30
2023-04-27T14:28:02.956Z,18.22
2023-04-27T14:30:31.844Z,18.47
2023-04-27T14:32:59.301Z,18.09
2023-04-27T14:35:27.956Z,18.08
2023-04-27T14:37:55.477Z,18.02
2023-04-27T14:40:22.968Z,18.03
2023-04-27T14:42:50.279Z,18.43
2023-04-27T14:45:17.653Z,18.47
2023-04-27T14:47:44.990Z,18.39
2023-04-27T14:50:12.463Z,18.36
2023-04-27T14:52:39.828Z,18.54
2023-04-27T14:55:07.502Z,18.36
2023-04-27T14:57:35.996Z,18.41
2023-04-27T15:00:03.719Z,18.52
2023-04-27T15:02:33.881Z,18.55
2023-04-27T15:05:01.956Z,18.51
2023-04-27T15:07:29.499Z,18.56
2023-04-27T15:09:57.052Z,18.56
2023-04-27T15:12:24.690Z,18.56
2023-04-27T15:14:52.026Z,18.56
2023-04-27T15:17:19.771Z,18.71
2023-04-27T15:19:47.053Z,18.84
2023-04-27T15:22:14.778Z,19.07
2023-04-27T15:24:42.193Z,18.75
2023-04-27T15:27:10.080Z,18.62
2023-04-27T15:29:38.270Z,18.75
2023-04-27T15:32:05.755Z,18.64
2023-04-27T15:34:33.018Z,18.81
2023-04-27T15:37:00.377Z,18.65
2023-04-27T15:39:27.716Z,18.51
2023-04-27T15:41:55.035Z,18.93
2023-04-27T15:44:22.762Z,18.49
2023-04-27T15:46:50.091Z,18.24
2023-04-27T15:49:18.164Z,18.29
2023-04-27T15:51:45.475Z,18.08
2023-04-27T15:54:12.859Z,17.97
2023-04-27T15:56:40.153Z,18.05
2023-04-27T15:59:07.773Z,17.84
2023-04-27T16:01:35.053Z,17.86
2023-04-27T16:04:02.524Z,17.76
2023-04-27T16:06:34.726Z,17.78
2023-04-27T16:09:05.023Z,17.66
2023-04-27T16:11:32.565Z,17.88
2023-04-27T16:14:08.730Z,17.74
2023-04-27T16:16:41.954Z,17.75
2023-04-27T16:19:15.128Z,17.69
2023-04-27T16:21:49.316Z,16.69
2023-04-27T16:24:16.702Z,16.29
2023-04-27T16:26:47.275Z,16.11
2023-04-27T16:29:17.999Z,15.93
2023-04-27T16:31:45.334Z,15.88
2023-04-27T16:34:18.145Z,15.81
2023-04-27T16:36:48.854Z,15.69
2023-04-27T16:39:20.167Z,15.77
2023-04-27T16:41:48.282Z,15.77
2023-04-27T16:44:16.370Z,15.56
2023-04-27T16:46:43.766Z,15.45
2023-04-27T16:49:17.271Z,15.57
2023-04-27T16:51:48.280Z,15.30
2023-04-27T16:54:18.093Z,15.25
2023-04-27T16:56:45.334Z,15.22
2023-04-27T16:59:12.907Z,15.16
2023-04-27T17:01:40.632Z,15.12
2023-04-27T17:04:08.260Z,16.10
2023-04-27T17:06:39.191Z,16.01
2023-04-27T17:09:09.458Z,15.44
2023-04-27T17:11:40.233Z,15.12
2023-04-27T17:14:07.949Z,15.64
2023-04-27T17:16:35.313Z,16.67
2023-04-27T17:19:02.677Z,16.94
2023-04-27T17:21:30.346Z,15.76
2023-04-27T17:24:01.301Z,15.31
2023-04-27T17:26:35.442Z,15.00
2023-04-27T17:29:02.775Z,15.91
2023-04-27T17:31:30.114Z,15.13
2023-04-27T17:34:02.459Z,14.95
2023-04-27T17:36:29.825Z,14.77
2023-04-27T17:38:57.117Z,14.59
2023-04-27T17:41:24.587Z,14.52
2023-04-27T17:43:52.560Z,14.40
2023-04-27T17:46:19.996Z,14.44
2023-04-27T17:48:47.313Z,14.43
2023-04-27T17:51:14.710Z,14.32
2023-04-27T17:53:42.128Z,14.29
2023-04-27T17:56:09.394Z,14.24
2023-04-27T17:58:36.746Z,14.17
2023-04-27T18:01:04.268Z,14.11
2023-04-27T18:03:32.193Z,13.92
2023-04-27T18:05:59.726Z,14.02
2023-04-27T18:08:27.090Z,13.99
2023-04-27T18:10:54.483Z,13.97
2023-04-27T18:13:21.941Z,13.89
2023-04-27T18:15:49.302Z,13.88
2023-04-27T18:18:16.990Z,13.88
2023-04-27T18:20:44.437Z,13.89
2023-04-27T18:23:11.788Z,13.87
2023-04-27T18:25:39.135Z,13.87
2023-04-27T18:28:06.481Z,13.79
2023-04-27T18:30:33.839Z,13.78
2023-04-27T18:33:01.294Z,13.82
2023-04-27T18:35:28.579Z,13.66
2023-04-27T18:37:56.031Z,13.67
2023-04-27T18:40:23.547Z,13.64
2023-04-27T18:42:50.829Z,13.65
2023-04-27T18:45:20.970Z,13.71
2023-04-27T18:47:50.930Z,13.69
2023-04-27T18:50:21.673Z,13.71
2023-04-27T18:52:49.158Z,13.57
2023-04-27T18:55:16.649Z,13.67
2023-04-27T18:57:44.736Z,13.48
2023-04-27T19:00:12.560Z,13.42
2023-04-27T19:02:40.036Z,13.41
2023-04-27T19:05:13.030Z,13.58
2023-04-27T19:07:42.925Z,13.80
2023-04-27T19:10:11.205Z,13.58
2023-04-27T19:12:38.683Z,13.45
2023-04-27T19:15:06.602Z,13.44
2023-04-27T19:17:34.098Z,13.43
2023-04-27T19:20:01.504Z,13.51
2023-04-27T19:22:29.483Z,13.53
2023-04-27T19:24:56.849Z,13.59
2023-04-27T19:27:24.115Z,13.58
2023-04-27T19:29:56.763Z,13.54
2023-04-27T19:32:25.140Z,13.40
2023-04-27T19:34:54.024Z,13.31
2023-04-27T19:37:21.354Z,13.23
2023-04-27T19:39:48.903Z,13.22
2023-04-27T19:42:16.522Z,13.06
2023-04-27T19:44:43.898Z,13.05
2023-04-27T19:47:11.331Z,13.03
2023-04-27T19:49:38.769Z,12.98
2023-04-27T19:52:06.194Z,12.93
2023-04-27T19:54:34.112Z,12.87
2023-04-27T19:57:01.511Z,12.78
2023-04-27T19:59:29.652Z,12.63
2023-04-27T20:01:57.025Z,12.67
2023-04-27T20:04:27.100Z,12.57
2023-04-27T20:06:54.820Z,12.53
2023-04-27T20:09:22.142Z,12.39
2023-04-27T20:11:49.611Z,12.54
2023-04-27T20:14:17.128Z,12.52
2023-04-27T20:16:44.802Z,12.60
2023-04-27T20:19:12.097Z,12.38
2023-04-27T20:21:39.835Z,12.37
2023-04-27T20:24:07.344Z,12.23
2023-04-27T20:26:38.238Z,12.12
2023-04-27T20:29:08.326Z,12.07
2023-04-27T20:31:36.059Z,11.99
2023-04-27T20:34:03.596Z,11.83
2023-04-27T20:36:36.689Z,11.70
2023-04-27T20:39:04.129Z,11.72
2023-04-27T20:41:32.251Z,11.80
2023-04-27T20:43:59.825Z,11.65
2023-04-27T20:46:27.551Z,11.66
2023-04-27T20:48:55.025Z,11.58
2023-04-27T20:51:22.471Z,11.49
2023-04-27T20:53:49.860Z,11.76
2023-04-27T20:56:17.204Z,11.76
2023-04-27T20:58:44.728Z,11.82
2023-04-27T21:01:12.146Z,11.69
2023-04-27T21:03:49.429Z,11.72
2023-04-27T21:06:33.899Z,11.79
2023-04-27T21:09:01.492Z,11.72
2023-04-27T21:11:28.746Z,11.78
2023-04-27T21:13:56.010Z,11.73
2023-04-27T21:16:23.770Z,11.77
2023-04-27T21:18:51.096Z,11.64
2023-04-27T21:21:18.460Z,11.58
2023-04-27T21:23:48.131Z,11.36
2023-04-27T21:26:17.397Z,11.17
2023-04-27T21:28:44.792Z,11.38
2023-04-27T21:31:12.196Z,11.33
2023-04-27T21:33:39.632Z,11.32
2023-04-27T21:36:07.109Z,11.32
2023-04-27T21:38:35.351Z,11.28
2023-04-27T21:41:02.687Z,11.16
2023-04-27T21:43:30.093Z,11.12
2023-04-27T21:45:57.464Z,11.12
2023-04-27T21:48:25.032Z,10.85
2023-04-27T21:50:52.335Z,10.97
2023-04-27T21:53:22.402Z,10.99
2023-04-27T21:55:49.704Z,10.89
2023-04-27T21:58:17.076Z,10.92
2023-04-27T22:00:46.480Z,10.69
2023-04-27T22:03:14.530Z,10.79
2023-04-27T22:05:42.070Z,10.73
2023-04-27T22:08:09.997Z,10.73
2023-04-27T22:10:37.257Z,10.67
2023-04-27T22:13:17.565Z,10.66
2023-04-27T22:15:45.999Z,10.76
2023-04-27T22:18:14.463Z,10.59
2023-04-27T22:20:42.314Z,10.58
2023-04-27T22:23:10.098Z,10.58
2023-04-27T22:25:38.239Z,10.36
2023-04-27T22:28:05.817Z,10.42
2023-04-27T22:30:35.395Z,10.38
2023-04-27T22:33:04.239Z,10.35
2023-04-27T22:35:33.295Z,10.35
2023-04-27T22:38:00.735Z,10.31
2023-04-27T22:40:28.164Z,10.38
2023-04-27T22:42:58.041Z,10.30
2023-04-27T22:45:25.815Z,10.19
2023-04-27T22:47:53.166Z,10.14
2023-04-27T22:50:21.311Z,10.05
2023-04-27T22:52:49.041Z,10.03
2023-04-27T22:55:16.405Z,9.94
2023-04-27T22:57:46.680Z,10.09
2023-04-27T23:00:14.394Z,10.13
2023-04-27T23:02:42.694Z,9.92
2023-04-27T23:05:10.626Z,9.98
2023-04-27T23:07:38.516Z,9.87
2023-04-27T23:10:06.484Z,9.76
2023-04-27T23:12:34.040Z,9.79
2023-04-27T23:15:01.512Z,9.76
2023-04-27T23:17:28.895Z,9.71
2023-04-27T23:20:00.323Z,9.85
2023-04-27T23:22:27.966Z,9.89
2023-04-27T23:24:55.344Z,9.93
2023-04-27T23:27:23.218Z,9.91
2023-04-27T23:29:51.353Z,9.83
2023-04-27T23:32:19.799Z,9.76
2023-04-27T23:34:47.247Z,9.68
2023-04-27T23:37:14.579Z,9.63
2023-04-27T23:39:42.273Z,9.80
2023-04-27T23:42:09.647Z,9.57
2023-04-27T23:44:37.018Z,9.48
2023-04-27T23:47:04.342Z,9.44
2023-04-27T23:49:31.707Z,9.54
2023-04-27T23:52:02.347Z,9.45
2023-04-27T23:54:30.745Z,9.39
2023-04-27T23:56:58.411Z,9.43
2023-04-27T23:59:25.735Z,9.38
